Time;durP1;ratioP1;P1;durP2;ratioP2;P2;SDS_P1;SDS_P2;PMS_P1;PMS_P2;Temp;Humidity;BMP_temperature;BMP_pressure;BME280_temperature;BME280_humidity;BME280_pressure;Samples;Min_cycle;Max_cycle;Signal;HPM_P1;HPM_P2
2022/09/14 00:01:08;;;;;;;10.68;5.32;;;;;;;14.70;71.12;99924.53;5069675;28;20365;-26
2022/09/14 00:03:34;;;;;;;10.18;5.15;;;;;;;14.63;70.61;99918.53;5050859;28;20090;-27
2022/09/14 00:06:05;;;;;;;7.22;4.85;;;;;;;14.61;70.94;99936.78;5069025;28;20032;-27
2022/09/14 00:08:30;;;;;;;9.15;5.03;;;;;;;14.64;71.55;99922.84;5068184;28;20031;-31
2022/09/14 00:10:56;;;;;;;10.20;4.70;;;;;;;14.95;70.39;99925.88;5069204;28;20024;-28
2022/09/14 00:13:21;;;;;;;9.52;4.70;;;;;;;14.52;71.38;99919.44;5069059;28;20024;-27
2022/09/14 00:15:47;;;;;;;7.88;4.80;;;;;;;13.93;74.19;99915.38;5069414;28;20031;-27
2022/09/14 00:18:12;;;;;;;9.80;4.25;;;;;;;13.81;75.27;99911.97;5069057;28;20029;-28
2022/09/14 00:20:38;;;;;;;8.35;4.45;;;;;;;13.71;76.27;99933.25;5068440;28;20039;-26
2022/09/14 00:23:04;;;;;;;7.78;4.75;;;;;;;13.99;74.81;99935.84;5068908;28;20024;-27
2022/09/14 00:25:30;;;;;;;8.25;4.78;;;;;;;14.25;73.82;99934.34;5067303;28;20112;-29
2022/09/14 00:27:56;;;;;;;6.88;4.57;;;;;;;14.67;71.55;99933.09;5069068;28;20105;-28
2022/09/14 00:30:22;;;;;;;12.05;6.40;;;;;;;14.50;71.47;99929.59;5050057;28;20091;-28
2022/09/14 00:32:48;;;;;;;9.88;5.68;;;;;;;14.74;71.08;99939.06;5068631;28;20039;-27
2022/09/14 00:35:14;;;;;;;11.15;5.65;;;;;;;14.57;70.96;99920.34;5050192;28;20083;-27
2022/09/14 00:37:39;;;;;;;9.07;5.55;;;;;;;14.76;70.50;99944.19;5050903;28;20759;-29
2022/09/14 00:40:06;;;;;;;7.18;4.70;;;;;;;14.62;70.80;99941.06;5050592;28;20133;-27
2022/09/14 00:42:31;;;;;;;6.75;4.32;;;;;;;14.19;72.51;99929.16;5050026;28;20025;-28
2022/09/14 00:45:04;;;;;;;9.85;4.75;;;;;;;14.27;72.67;99936.81;5068483;28;20025;-28
2022/09/14 00:47:31;;;;;;;6.80;4.40;;;;;;;14.34;72.79;99940.09;5068291;28;20032;-28
2022/09/14 00:50:01;;;;;;;10.32;5.05;;;;;;;14.45;71.87;99938.41;5050050;28;20060;-31
2022/09/14 00:52:29;;;;;;;7.57;4.13;;;;;;;14.10;73.52;99938.69;5067908;28;20201;-28
2022/09/14 00:55:02;;;;;;;8.85;4.60;;;;;;;14.09;73.98;99942.44;5068189;28;20033;-27
2022/09/14 00:57:33;;;;;;;5.60;4.22;;;;;;;14.38;72.46;99927.81;5068054;28;20032;-30
2022/09/14 00:59:59;;;;;;;7.60;4.43;;;;;;;14.25;72.47;99933.56;5049918;28;20408;-30
2022/09/14 01:02:26;;;;;;;8.43;4.05;;;;;;;13.89;73.33;99935.69;5067868;28;20492;-26
2022/09/14 01:04:52;;;;;;;8.13;4.22;;;;;;;13.91;73.66;99941.59;5050089;28;20040;-28
2022/09/14 01:07:24;;;;;;;5.80;3.97;;;;;;;13.84;73.95;99938.28;5049863;28;20090;-30
2022/09/14 01:10:11;;;;;;;6.63;4.40;;;;;;;13.95;74.14;99945.44;5066475;28;20024;-27
2022/09/14 01:12:58;;;;;;;6.03;3.97;;;;;;;13.84;74.18;99954.38;5065958;28;20032;-27
2022/09/14 01:15:42;;;;;;;6.88;4.15;;;;;;;13.42;76.79;99952.03;5066457;28;20024;-27
2022/09/14 01:18:26;;;;;;;11.15;4.47;;;;;;;13.36;76.58;99953.81;5067979;28;20165;-30
2022/09/14 01:21:10;;;;;;;6.85;4.32;;;;;;;13.52;76.29;99946.84;5067361;28;20093;-26
2022/09/14 01:23:45;;;;;;;7.25;4.15;;;;;;;13.45;75.85;99951.56;5067951;28;20031;-27
2022/09/14 01:26:32;;;;;;;6.50;4.05;;;;;;;13.05;77.94;99941.66;5066274;28;20028;-28
2022/09/14 01:29:22;;;;;;;7.13;4.05;;;;;;;13.01;78.40;99945.88;5067520;28;20036;-33
2022/09/14 01:31:59;;;;;;;8.25;4.03;;;;;;;13.54;75.58;99935.91;5067834;28;20086;-30
2022/09/14 01:34:33;;;;;;;6.22;3.92;;;;;;;13.53;75.44;99948.50;5067439;28;20044;-27
2022/09/14 01:37:11;;;;;;;5.97;4.18;;;;;;;13.49;74.81;99928.59;5067543;28;20044;-30
2022/09/14 01:39:42;;;;;;;6.32;4.32;;;;;;;13.46;74.43;99931.75;5049404;28;20109;-30
2022/09/14 01:42:11;;;;;;;6.85;4.00;;;;;;;13.36;74.37;99927.03;5049608;28;20050;-29
2022/09/14 01:44:41;;;;;;;7.93;4.20;;;;;;;13.02;76.05;99942.16;5049150;28;20025;-27
2022/09/14 01:47:33;;;;;;;7.43;4.13;;;;;;;12.82;77.16;99934.53;5066279;28;20032;-28
2022/09/14 01:50:06;;;;;;;6.75;4.32;;;;;;;12.49;77.98;99943.22;5058583;28;20105;-29
2022/09/14 01:52:49;;;;;;;9.20;4.22;;;;;;;12.69;77.16;99943.66;5048904;28;20035;-29
2022/09/14 01:55:21;;;;;;;5.93;3.55;;;;;;;12.33;78.54;99942.84;5032865;28;20039;-27
2022/09/14 01:58:04;;;;;;;7.78;4.05;;;;;;;12.42;77.39;99928.09;5049190;28;20040;-29
2022/09/14 02:00:31;;;;;;;7.03;4.18;;;;;;;12.11;77.68;99941.81;5049280;28;20809;-27
2022/09/14 02:03:16;;;;;;;6.68;4.05;;;;;;;12.89;75.18;99961.16;5067403;28;20032;-28
2022/09/14 02:05:51;;;;;;;9.20;4.55;;;;;;;13.10;75.37;99955.16;5065853;28;20036;-27
2022/09/14 02:08:17;;;;;;;5.82;3.92;;;;;;;13.19;74.46;99961.75;5065788;28;20415;-28
2022/09/14 02:10:42;;;;;;;6.65;4.15;;;;;;;12.56;76.14;99941.22;5065636;28;20039;-29
2022/09/14 02:13:08;;;;;;;8.43;4.20;;;;;;;12.86;75.23;99933.81;5066967;28;20020;-27
2022/09/14 02:15:35;;;;;;;8.60;4.65;;;;;;;12.55;77.18;99959.13;5067296;28;20477;-31
2022/09/14 02:18:02;;;;;;;9.60;5.13;;;;;;;13.00;76.04;99960.31;5067175;28;20029;-28
2022/09/14 02:20:53;;;;;;;12.98;6.30;;;;;;;12.41;77.60;99952.41;5065574;28;20040;-29
2022/09/14 02:23:19;;;;;;;13.20;6.57;;;;;;;12.56;77.74;99952.72;5041662;28;20941;-28
2022/09/14 02:25:45;;;;;;;9.30;5.15;;;;;;;13.05;75.27;99949.69;5067122;28;20107;-29
2022/09/14 02:28:11;;;;;;;10.23;5.00;;;;;;;13.03;75.72;99955.28;5032157;28;20024;-28
2022/09/14 02:31:07;;;;;;;8.50;4.80;;;;;;;13.10;74.91;99968.56;5068460;28;20698;-30
2022/09/14 02:33:47;;;;;;;6.43;4.05;;;;;;;12.93;75.65;99964.97;5070756;28;20063;-29
2022/09/14 02:36:31;;;;;;;7.00;4.55;;;;;;;13.02;74.79;99942.16;5069448;28;20035;-27
2022/09/14 02:39:05;;;;;;;6.88;4.47;;;;;;;12.82;75.01;99955.94;5071079;28;20397;-28
2022/09/14 02:41:55;;;;;;;7.53;3.90;;;;;;;13.05;74.33;99957.72;5071244;28;20504;-29
2022/09/14 02:44:36;;;;;;;6.75;4.38;;;;;;;12.98;74.71;99973.94;5070502;28;20036;-28
2022/09/14 02:47:28;;;;;;;5.93;3.97;;;;;;;12.82;75.48;99970.13;5052742;28;20031;-27
2022/09/14 02:50:10;;;;;;;7.50;3.70;;;;;;;12.73;75.14;99955.50;5046566;28;20052;-27
2022/09/14 02:52:52;;;;;;;7.22;3.55;;;;;;;12.62;75.42;99972.38;5068912;28;20027;-27
2022/09/14 02:55:22;;;;;;;5.40;3.42;;;;;;;12.56;75.77;99965.28;5052497;28;20036;-27
2022/09/14 02:58:08;;;;;;;5.90;3.60;;;;;;;12.57;75.92;99962.38;5052315;28;20035;-27
2022/09/14 03:00:39;;;;;;;5.78;3.42;;;;;;;12.48;76.39;99946.91;5070123;28;20043;-26
2022/09/14 03:03:06;;;;;;;6.35;3.90;;;;;;;12.66;75.82;99955.59;5070212;28;20032;-31
2022/09/14 03:05:32;;;;;;;4.77;3.23;;;;;;;12.44;76.90;99941.22;5052235;28;20118;-29
2022/09/14 03:07:59;;;;;;;5.93;3.17;;;;;;;12.63;75.41;99944.59;5070035;28;20107;-28
2022/09/14 03:10:26;;;;;;;8.65;3.63;;;;;;;12.54;75.59;99967.38;5051723;28;20021;-30
2022/09/14 03:12:51;;;;;;;4.82;3.50;;;;;;;12.48;74.91;99954.94;5051967;28;20031;-28
2022/09/14 03:15:17;;;;;;;10.43;4.20;;;;;;;12.57;75.22;99966.94;5068363;28;20024;-28
2022/09/14 03:17:47;;;;;;;6.20;3.58;;;;;;;12.81;74.76;99973.03;5069973;28;20029;-32
2022/09/14 03:20:18;;;;;;;8.95;3.72;;;;;;;12.74;74.89;99959.78;5069995;28;20731;-27
2022/09/14 03:22:44;;;;;;;6.50;3.58;;;;;;;12.79;74.38;99954.56;5069659;28;20420;-30
2022/09/14 03:25:09;;;;;;;9.90;5.15;;;;;;;12.71;73.83;99948.75;5051533;28;20111;-27
2022/09/14 03:27:35;;;;;;;10.55;4.93;;;;;;;12.76;73.57;99960.38;5069749;28;20033;-26
2022/09/14 03:30:01;;;;;;;9.15;4.65;;;;;;;12.32;75.52;99949.28;5069654;28;20090;-31
2022/09/14 03:32:26;;;;;;;7.72;4.13;;;;;;;12.00;77.41;99957.59;5069239;28;20025;-28
2022/09/14 03:34:51;;;;;;;4.95;3.55;;;;;;;12.22;76.14;99967.75;5069405;28;20048;-29
2022/09/14 03:37:17;;;;;;;6.57;3.30;;;;;;;12.30;75.38;99955.88;5069597;28;20035;-28
2022/09/14 03:39:42;;;;;;;5.20;3.17;;;;;;;12.03;76.89;99951.81;5069637;28;20025;-30
2022/09/14 03:42:08;;;;;;;5.75;3.10;;;;;;;11.82;77.93;99952.31;5068947;28;20028;-28
2022/09/14 03:44:33;;;;;;;5.68;3.30;;;;;;;12.01;77.01;99959.25;5069382;28;20033;-26
2022/09/14 03:46:58;;;;;;;6.28;3.40;;;;;;;12.22;76.19;99973.09;5051156;28;20029;-30
2022/09/14 03:49:24;;;;;;;6.63;3.42;;;;;;;12.21;76.08;99966.09;5069439;28;20028;-28
2022/09/14 03:51:49;;;;;;;5.68;3.50;;;;;;;11.86;77.23;99950.81;5069125;28;20029;-26
2022/09/14 03:54:15;;;;;;;4.70;3.42;;;;;;;12.10;76.58;99973.09;5069084;28;20043;-30
2022/09/14 03:56:40;;;;;;;7.40;3.70;;;;;;;12.24;76.46;99984.38;5068812;28;20024;-30
2022/09/14 03:59:09;;;;;;;10.95;3.78;;;;;;;12.23;76.49;99985.41;5068983;28;20407;-28
2022/09/14 04:01:34;;;;;;;;;;;;;;;11.59;79.19;99977.94;5069226;28;20024;-32
2022/09/14 04:04:00;;;;;;;7.22;3.95;;;;;;;11.49;79.38;99977.66;5068973;28;19928;-28
2022/09/14 04:06:25;;;;;;;7.45;3.85;;;;;;;11.50;78.21;99963.25;5068864;28;20025;-28
2022/09/14 04:08:51;;;;;;;5.35;3.40;;;;;;;11.42;78.81;99979.59;5068939;28;20024;-28
2022/09/14 04:11:19;;;;;;;7.45;3.63;;;;;;;11.79;77.44;99960.78;5069030;28;20028;-29
2022/09/14 04:13:45;;;;;;;8.55;3.50;;;;;;;11.93;76.58;99983.66;5067639;28;20044;-28
2022/09/14 04:16:11;;;;;;;6.93;3.65;;;;;;;11.91;76.10;99956.34;5050418;28;20040;-27
2022/09/14 04:18:37;;;;;;;6.00;3.78;;;;;;;11.96;76.39;99977.00;5068802;28;20040;-32
2022/09/14 04:21:05;;;;;;;7.15;4.10;;;;;;;12.11;76.25;99979.25;5068604;28;20024;-28
2022/09/14 04:23:31;;;;;;;7.53;4.00;;;;;;;12.05;76.56;99970.28;5050773;28;20036;-28
2022/09/14 04:25:57;;;;;;;7.10;3.80;;;;;;;12.34;75.64;99989.97;5050420;28;20119;-31
2022/09/14 04:28:23;;;;;;;7.95;4.00;;;;;;;11.89;77.83;99986.97;5068245;28;20466;-30
2022/09/14 04:31:01;;;;;;;7.50;3.53;;;;;;;11.66;79.28;99994.66;5068297;28;20056;-27
2022/09/14 04:33:31;;;;;;;7.27;4.10;;;;;;;11.55;79.26;99982.09;5068619;28;20415;-27
2022/09/14 04:35:57;;;;;;;8.07;3.47;;;;;;;11.60;79.27;99995.56;5050342;28;20044;-27
2022/09/14 04:38:23;;;;;;;6.78;3.83;;;;;;;11.85;77.39;99995.44;5068346;28;20037;-28
2022/09/14 04:40:49;;;;;;;5.53;3.47;;;;;;;11.63;76.80;99987.13;5068371;28;20451;-27
2022/09/14 04:43:15;;;;;;;4.85;3.30;;;;;;;11.38;79.06;99986.44;5068074;28;20424;-28
2022/09/14 04:45:40;;;;;;;10.05;4.05;;;;;;;12.00;76.97;99983.53;5050193;28;20599;-30
2022/09/14 04:48:05;;;;;;;9.35;5.38;;;;;;;11.83;77.21;99978.81;5068119;28;20032;-27
2022/09/14 04:50:32;;;;;;;5.95;3.72;;;;;;;12.26;75.98;99982.28;5049882;28;20024;-27
2022/09/14 04:52:57;;;;;;;7.20;3.80;;;;;;;12.34;74.41;99987.28;5067933;28;20101;-28
2022/09/14 04:55:23;;;;;;;9.52;4.30;;;;;;;12.13;75.43;99982.50;5067138;28;20021;-29
2022/09/14 04:57:49;;;;;;;8.98;4.53;;;;;;;12.05;75.61;99986.31;5066411;28;20048;-33
2022/09/14 05:00:15;;;;;;;40.13;20.15;;;;;;;12.00;75.97;99978.19;5049997;28;20039;-28
2022/09/14 05:02:40;;;;;;;72.05;35.47;;;;;;;12.12;76.78;99988.91;5067819;28;20036;-32
2022/09/14 05:05:06;;;;;;;99.60;49.10;;;;;;;11.92;78.01;99998.03;5067762;28;20443;-31
2022/09/14 05:07:32;;;;;;;259.20;113.03;;;;;;;12.04;78.20;99958.78;5066387;28;20041;-29
2022/09/14 05:09:57;;;;;;;47.08;23.75;;;;;;;12.31;77.58;99993.09;5067473;28;20404;-30
2022/09/14 05:12:23;;;;;;;13.25;7.07;;;;;;;12.29;78.28;99997.84;5067347;28;20422;-30
2022/09/14 05:14:48;;;;;;;11.57;6.00;;;;;;;12.28;78.71;99990.88;5067606;28;20522;-28
2022/09/14 05:17:13;;;;;;;8.00;5.88;;;;;;;12.44;78.44;99978.66;5067526;28;20028;-29
2022/09/14 05:19:39;;;;;;;8.65;5.28;;;;;;;12.74;75.58;99973.16;5067390;28;20033;-29
2022/09/14 05:22:04;;;;;;;7.28;5.47;;;;;;;13.11;75.29;99994.25;5067697;28;20016;-31
2022/09/14 05:24:30;;;;;;;8.95;5.38;;;;;;;13.03;75.54;100002.66;5049158;28;20041;-30
2022/09/14 05:26:56;;;;;;;8.15;5.70;;;;;;;12.95;74.70;99979.75;5067110;28;20036;-31
2022/09/14 05:29:21;;;;;;;7.82;5.68;;;;;;;13.42;74.23;100005.59;5049342;28;20038;-30
2022/09/14 05:31:47;;;;;;;8.32;5.70;;;;;;;13.53;73.44;99988.69;5067784;28;20028;-29
2022/09/14 05:34:13;;;;;;;10.55;5.50;;;;;;;13.78;72.23;99974.09;5067321;28;20049;-30
2022/09/14 05:36:39;;;;;;;9.18;5.85;;;;;;;13.91;72.92;99992.53;5049101;28;20024;-30
2022/09/14 05:39:06;;;;;;;7.82;5.55;;;;;;;14.13;72.33;99989.97;5049115;28;20548;-34
2022/09/14 05:41:31;;;;;;;8.55;5.85;;;;;;;14.24;71.56;99969.47;5048809;28;20144;-32
2022/09/14 05:43:58;;;;;;;9.57;6.32;;;;;;;14.55;70.98;99978.78;5067630;28;20115;-30
2022/09/14 05:46:23;;;;;;;12.10;6.88;;;;;;;14.80;70.81;100002.50;5048946;28;20053;-35
2022/09/14 05:48:50;;;;;;;11.57;6.65;;;;;;;14.92;69.82;99993.53;5067061;28;20400;-30
2022/09/14 05:51:21;;;;;;;11.73;8.05;;;;;;;15.11;69.09;100004.78;5065709;28;20032;-29
2022/09/14 05:53:49;;;;;;;9.50;7.72;;;;;;;15.28;70.42;100016.25;5066859;28;20043;-30
2022/09/14 05:56:15;;;;;;;9.80;6.93;;;;;;;15.33;69.78;100015.50;5048841;28;20570;-31
2022/09/14 05:58:41;;;;;;;6.80;5.57;;;;;;;15.45;68.95;100016.19;5048732;28;20043;-29
2022/09/14 06:01:08;;;;;;;7.53;5.65;;;;;;;15.52;69.43;100000.66;5048835;28;20491;-29
2022/09/14 06:03:34;;;;;;;11.23;6.30;;;;;;;15.81;69.87;100011.19;5048872;28;20040;-30
2022/09/14 06:06:00;;;;;;;8.52;6.70;;;;;;;15.75;71.13;100021.09;5048526;28;20028;-30
2022/09/14 06:08:25;;;;;;;8.55;6.10;;;;;;;16.12;69.18;100024.91;5065089;28;20497;-28
2022/09/14 06:10:51;;;;;;;6.57;5.50;;;;;;;16.11;69.07;100028.66;5066950;28;20106;-27
2022/09/14 06:13:16;;;;;;;9.48;5.68;;;;;;;16.39;68.14;100033.75;5065514;28;20035;-30
2022/09/14 06:15:42;;;;;;;7.65;5.40;;;;;;;16.43;66.32;100028.66;5066800;28;20072;-31
2022/09/14 06:18:07;;;;;;;9.73;5.25;;;;;;;16.20;67.32;100027.13;5066855;28;20059;-32
2022/09/14 06:20:33;;;;;;;8.82;5.25;;;;;;;16.18;66.66;100024.72;5048584;28;20036;-28
2022/09/14 06:22:58;;;;;;;7.43;5.63;;;;;;;16.47;67.97;100049.41;5066686;28;20020;-29
2022/09/14 06:25:24;;;;;;;6.80;5.68;;;;;;;16.44;66.91;100031.06;5048562;28;20149;-31
2022/09/14 06:27:53;;;;;;;7.47;5.40;;;;;;;16.84;65.45;100045.91;5066829;28;20488;-28
2022/09/14 06:30:19;;;;;;;7.25;4.90;;;;;;;16.71;65.95;100032.06;5065273;28;20064;-28
2022/09/14 06:32:44;;;;;;;6.63;4.63;;;;;;;16.91;65.67;100026.81;5048584;28;20060;-32
2022/09/14 06:35:10;;;;;;;6.50;4.95;;;;;;;17.00;66.01;100046.81;5066657;28;20504;-31
2022/09/14 06:37:35;;;;;;;5.93;4.22;;;;;;;17.05;62.81;100032.53;5066464;28;20048;-31
2022/09/14 06:40:01;;;;;;;7.13;4.53;;;;;;;17.38;61.32;100041.28;5066689;28;20408;-28
2022/09/14 06:42:29;;;;;;;5.90;4.60;;;;;;;17.54;61.72;100053.75;5066210;28;20028;-28
2022/09/14 06:44:54;;;;;;;;;;;;;;;17.86;61.00;100058.19;5067410;28;20789;-29
2022/09/14 06:47:20;;;;;;;8.60;5.75;;;;;;;17.77;61.35;100038.16;5066132;28;19925;-28
2022/09/14 06:49:45;;;;;;;7.35;4.57;;;;;;;18.06;59.80;100050.09;5065845;28;20043;-32
2022/09/14 06:52:11;;;;;;;5.80;4.57;;;;;;;18.29;60.12;100050.66;5065883;28;20032;-28
2022/09/14 06:54:36;;;;;;;6.80;4.65;;;;;;;18.62;60.49;100045.75;5065668;28;20025;-29
2022/09/14 06:57:02;;;;;;;9.00;4.53;;;;;;;18.68;59.12;100041.97;5047990;28;20095;-29
2022/09/14 06:59:27;;;;;;;6.65;4.20;;;;;;;18.94;58.34;100029.22;5065992;28;20032;-28
2022/09/14 07:01:53;;;;;;;7.00;4.05;;;;;;;19.22;55.63;100035.88;5066187;28;20032;-29
2022/09/14 07:04:18;;;;;;;6.85;4.35;;;;;;;19.24;54.49;100052.63;5047620;28;20025;-30
2022/09/14 07:06:48;;;;;;;5.85;3.88;;;;;;;19.35;55.15;100055.28;5066092;28;20029;-29
2022/09/14 07:09:15;;;;;;;4.90;3.67;;;;;;;19.62;53.92;100050.28;5047698;28;20094;-28
2022/09/14 07:11:42;;;;;;;6.60;3.63;;;;;;;19.56;51.16;100050.59;5047946;28;20036;-28
2022/09/14 07:14:08;;;;;;;5.50;3.72;;;;;;;19.59;51.96;100048.13;5065953;28;20020;-33
2022/09/14 07:16:35;;;;;;;4.90;3.42;;;;;;;19.82;48.94;100054.00;5047740;28;20111;-29
2022/09/14 07:19:04;;;;;;;8.77;3.60;;;;;;;19.91;48.92;100052.28;5069306;28;20048;-30
2022/09/14 07:21:31;;;;;;;6.03;3.20;;;;;;;19.93;46.07;100054.72;5067786;28;20066;-32
2022/09/14 07:23:56;;;;;;;5.03;3.20;;;;;;;20.18;46.78;100046.41;5051471;28;20032;-29
2022/09/14 07:26:27;;;;;;;4.60;3.40;;;;;;;20.07;46.93;100056.50;5068986;28;20039;-27
2022/09/14 07:28:58;;;;;;;5.20;3.80;;;;;;;20.40;47.29;100048.66;5069608;28;20102;-30
2022/09/14 07:31:30;;;;;;;4.55;3.63;;;;;;;20.52;46.73;100042.88;5051072;28;20126;-29
2022/09/14 07:33:57;;;;;;;7.05;4.13;;;;;;;20.38;47.46;100045.41;5068632;28;20048;-30
2022/09/14 07:36:24;;;;;;;;;;;;;;;20.55;46.12;100038.78;5051681;28;20115;-28
2022/09/14 07:38:50;;;;;;;5.20;3.63;;;;;;;20.50;46.03;100033.41;5069201;28;19924;-29
2022/09/14 07:41:15;;;;;;;7.18;4.25;;;;;;;20.55;46.03;100038.78;5069283;28;20039;-28
2022/09/14 07:43:41;;;;;;;6.97;4.13;;;;;;;20.96;47.28;100035.66;5069087;28;20029;-30
2022/09/14 07:46:06;;;;;;;4.72;3.97;;;;;;;21.20;45.49;100028.31;5048466;28;20047;-31
2022/09/14 07:48:34;;;;;;;5.65;4.22;;;;;;;21.19;44.45;100034.84;5068768;28;20108;-28
2022/09/14 07:51:01;;;;;;;6.32;4.53;;;;;;;21.43;45.02;100042.97;5050816;28;20504;-33
2022/09/14 07:53:26;;;;;;;8.52;4.72;;;;;;;21.28;44.58;100046.66;5050993;28;21047;-30
2022/09/14 07:55:52;;;;;;;7.38;4.20;;;;;;;21.25;44.70;100028.25;5068820;28;20082;-28
2022/09/14 07:58:17;;;;;;;6.95;4.50;;;;;;;21.57;44.37;100037.63;5068781;28;20461;-28
2022/09/14 08:00:43;;;;;;;6.78;4.38;;;;;;;21.86;45.28;100033.94;5068644;28;20036;-31
2022/09/14 08:03:09;;;;;;;7.35;4.35;;;;;;;21.69;45.75;100031.75;5068415;28;20032;-33
2022/09/14 08:05:34;;;;;;;7.85;4.50;;;;;;;22.13;45.30;100035.16;5068133;28;20032;-29
2022/09/14 08:08:00;;;;;;;6.85;4.35;;;;;;;22.43;45.01;100021.09;5068792;28;20024;-29
2022/09/14 08:10:26;;;;;;;6.90;4.00;;;;;;;22.41;44.60;100026.03;5068282;28;20017;-27
2022/09/14 08:12:53;;;;;;;5.95;4.45;;;;;;;22.45;41.91;100045.22;5068422;28;20040;-27
2022/09/14 08:15:22;;;;;;;8.18;4.55;;;;;;;22.46;43.21;100041.44;5068272;28;20381;-29
2022/09/14 08:17:48;;;;;;;6.85;4.55;;;;;;;22.48;43.82;100038.41;5050103;28;20039;-30
2022/09/14 08:20:15;;;;;;;6.70;4.82;;;;;;;22.78;43.16;100016.09;5068410;28;20111;-27
2022/09/14 08:22:43;;;;;;;6.07;4.10;;;;;;;23.04;43.62;100029.22;5068232;28;20115;-29
2022/09/14 08:25:09;;;;;;;6.10;3.90;;;;;;;22.95;43.56;100020.94;5050195;28;20408;-29
2022/09/14 08:27:35;;;;;;;5.72;3.78;;;;;;;23.01;44.43;100013.47;5050204;28;20484;-27
2022/09/14 08:30:00;;;;;;;6.28;4.15;;;;;;;22.91;42.23;100019.13;5067829;28;20035;-31
2022/09/14 08:32:25;;;;;;;6.35;4.10;;;;;;;22.92;43.57;100009.84;5067878;28;20548;-31
2022/09/14 08:34:51;;;;;;;5.45;3.72;;;;;;;23.15;42.59;100014.31;5068098;28;20056;-28
2022/09/14 08:37:16;;;;;;;7.57;3.78;;;;;;;22.86;42.07;100003.69;5068218;28;20031;-30
2022/09/14 08:39:42;;;;;;;5.85;4.13;;;;;;;23.04;43.65;100007.44;5068118;28;20531;-30
2022/09/14 08:42:15;;;;;;;5.05;3.05;;;;;;;23.20;42.44;100002.50;5068070;28;20024;-34
2022/09/14 08:44:59;;;;;;;4.82;3.80;;;;;;;23.44;40.95;100015.88;5048857;28;20044;-30
2022/09/14 08:47:33;;;;;;;6.63;3.90;;;;;;;23.46;39.61;100010.91;5048347;28;20021;-29
2022/09/14 08:50:17;;;;;;;5.50;4.10;;;;;;;23.69;42.96;100000.06;5029728;28;20040;-29
2022/09/14 08:52:51;;;;;;;7.10;3.50;;;;;;;23.78;41.31;100009.94;5029418;28;20480;-29
2022/09/14 08:55:42;;;;;;;4.72;3.13;;;;;;;24.18;40.94;100011.97;5048417;28;20029;-28
2022/09/14 08:58:32;;;;;;;4.90;3.50;;;;;;;24.36;37.82;100016.41;5067758;28;20047;-28
2022/09/14 09:01:27;;;;;;;5.68;3.13;;;;;;;24.25;36.79;100002.25;5047623;28;20835;-30
2022/09/14 09:04:18;;;;;;;6.03;3.40;;;;;;;24.30;37.62;100014.13;5047663;28;20499;-33
2022/09/14 09:07:04;;;;;;;5.03;2.92;;;;;;;24.33;38.10;100008.84;5047489;28;20432;-32
2022/09/14 09:09:47;;;;;;;3.35;2.80;;;;;;;24.67;36.06;100018.34;5047666;28;20028;-28
2022/09/14 09:12:16;;;;;;;6.03;3.30;;;;;;;24.80;37.58;99990.16;5029546;28;20116;-28
2022/09/14 09:14:55;;;;;;;5.60;3.30;;;;;;;25.06;37.15;100008.53;5029334;28;20075;-28
2022/09/14 09:17:30;;;;;;;5.72;3.60;;;;;;;25.18;38.62;100000.53;5048935;28;20078;-28
2022/09/14 09:20:05;;;;;;;5.22;3.35;;;;;;;25.60;38.77;99995.47;5067461;28;20077;-27
2022/09/14 09:22:38;;;;;;;5.68;3.38;;;;;;;25.88;37.13;99995.09;5048941;28;20119;-29
2022/09/14 09:25:13;;;;;;;3.97;2.75;;;;;;;25.78;35.49;99995.44;5049343;28;20028;-30
2022/09/14 09:27:38;;;;;;;5.00;2.88;;;;;;;25.58;35.01;99989.53;5049361;28;20555;-33
2022/09/14 09:30:04;;;;;;;4.07;2.83;;;;;;;25.50;35.48;99987.59;5067218;28;20082;-30
2022/09/14 09:32:38;;;;;;;5.07;3.03;;;;;;;25.26;34.89;99988.84;5048741;28;20085;-28
2022/09/14 09:35:05;;;;;;;5.65;2.88;;;;;;;25.31;35.57;99981.63;5067214;28;20526;-29
2022/09/14 09:37:36;;;;;;;6.40;3.10;;;;;;;25.28;35.12;99966.69;5048988;28;20169;-33
2022/09/14 09:40:07;;;;;;;4.75;2.95;;;;;;;25.73;37.24;99974.56;5048517;28;20044;-27
2022/09/14 09:42:32;;;;;;;4.47;2.60;;;;;;;25.89;35.46;99977.59;5066979;28;20039;-33
2022/09/14 09:45:01;;;;;;;4.22;2.80;;;;;;;26.08;35.77;99957.34;5066817;28;20408;-28
2022/09/14 09:47:33;;;;;;;6.38;2.58;;;;;;;26.51;34.87;99972.78;5048555;28;20029;-28
2022/09/14 09:50:05;;;;;;;4.88;2.50;;;;;;;26.32;32.68;99957.59;5066853;28;20048;-30
2022/09/14 09:52:31;;;;;;;3.72;2.47;;;;;;;26.32;34.24;99948.59;5048399;28;20028;-28
2022/09/14 09:54:59;;;;;;;4.28;2.83;;;;;;;26.45;34.02;99942.09;5048575;28;20029;-31
2022/09/14 09:57:35;;;;;;;5.18;3.33;;;;;;;26.34;36.09;99946.34;5048531;28;20123;-28
2022/09/14 10:00:26;;;;;;;3.60;2.80;;;;;;;26.61;35.44;99948.63;5066835;28;20039;-31
2022/09/14 10:02:53;;;;;;;5.28;2.70;;;;;;;26.66;33.44;99939.44;5066695;28;20089;-31
2022/09/14 10:05:23;;;;;;;4.80;3.00;;;;;;;26.70;34.17;99936.84;5066712;28;20037;-29
2022/09/14 10:07:48;;;;;;;6.13;2.80;;;;;;;26.83;34.00;99938.56;5048551;28;20054;-29
2022/09/14 10:10:19;;;;;;;4.53;2.53;;;;;;;27.30;34.47;99926.66;5066387;28;20083;-33
2022/09/14 10:12:47;;;;;;;6.07;2.72;;;;;;;27.80;34.83;99931.19;5048716;28;20164;-32
2022/09/14 10:15:40;;;;;;;3.90;2.50;;;;;;;27.57;31.93;99928.84;5066682;28;20029;-28
2022/09/14 10:18:07;;;;;;;6.63;3.28;;;;;;;27.47;31.33;99918.28;5066512;28;20401;-27
2022/09/14 10:20:35;;;;;;;4.13;2.40;;;;;;;27.54;32.44;99934.19;5048041;28;20032;-31
2022/09/14 10:23:37;;;;;;;5.43;2.63;;;;;;;27.65;32.79;99927.94;5048443;28;20036;-33
2022/09/14 10:26:12;;;;;;;4.38;2.50;;;;;;;27.74;31.52;99924.31;5034037;28;20060;-30
2022/09/14 10:28:42;;;;;;;4.78;2.58;;;;;;;27.92;32.41;99927.72;5066163;28;20033;-28
2022/09/14 10:31:17;;;;;;;4.07;2.28;;;;;;;27.83;31.58;99933.28;5048183;28;20093;-31
2022/09/14 10:33:50;;;;;;;4.55;2.65;;;;;;;28.02;30.89;99911.63;5048176;28;20024;-30
2022/09/14 10:36:24;;;;;;;4.57;2.58;;;;;;;28.05;29.90;99921.94;5066705;28;20021;-28
2022/09/14 10:38:51;;;;;;;3.85;2.10;;;;;;;28.42;31.12;99924.72;5066537;28;20036;-29
2022/09/14 10:41:47;;;;;;;5.45;2.33;;;;;;;28.74;30.85;99911.22;5047972;28;20024;-29
2022/09/14 10:44:25;;;;;;;4.57;2.60;;;;;;;28.69;30.11;99914.22;5048374;28;20576;-28
2022/09/14 10:46:56;;;;;;;;;;;;;;;28.64;28.42;99917.16;5048438;28;20074;-36
2022/09/14 10:49:22;;;;;;;5.90;2.30;;;;;;;28.85;30.54;99926.09;5066274;28;20431;-28
2022/09/14 10:51:50;;;;;;;3.92;2.03;;;;;;;28.97;30.89;99908.78;5066046;28;20060;-31
2022/09/14 10:54:49;;;;;;;4.43;2.22;;;;;;;28.68;27.40;99925.53;5070087;28;20910;-29
2022/09/14 10:58:02;;;;;;;8.57;3.30;;;;;;;28.70;28.95;99913.06;5070598;28;20032;-29
2022/09/14 11:00:33;;;;;;;6.82;3.35;;;;;;;28.89;28.98;99906.16;4987744;28;20885;-29
2022/09/14 11:03:17;;;;;;;4.05;1.90;;;;;;;29.07;28.29;99909.44;5054448;28;20060;-33
2022/09/14 11:06:03;;;;;;;3.65;2.00;;;;;;;29.33;28.19;99898.84;5051781;28;20415;-30
2022/09/14 11:08:36;;;;;;;2.15;1.40;;;;;;;28.97;24.84;99907.97;5051452;28;20032;-33
2022/09/14 11:11:21;;;;;;;2.47;1.70;;;;;;;29.35;24.83;99901.25;5051944;28;20036;-31
2022/09/14 11:14:22;;;;;;;4.28;1.73;;;;;;;29.27;26.17;99904.97;5068274;28;20090;-29
2022/09/14 11:16:59;;;;;;;4.75;2.00;;;;;;;29.86;24.75;99904.25;5069571;28;20036;-31
2022/09/14 11:19:31;;;;;;;2.65;1.20;;;;;;;29.66;21.53;99908.78;5068374;28;20052;-27
2022/09/14 11:22:02;;;;;;;2.45;1.20;;;;;;;29.94;22.29;99900.53;5069518;28;20037;-33
2022/09/14 11:24:40;;;;;;;3.42;1.88;;;;;;;30.09;22.79;99906.38;5051420;28;20038;-27
2022/09/14 11:27:47;;;;;;;2.88;1.63;;;;;;;29.96;25.69;99903.72;5069338;28;20020;-29
2022/09/14 11:30:38;;;;;;;4.75;1.90;;;;;;;29.78;25.13;99896.97;5040282;28;20097;-29
2022/09/14 11:33:10;;;;;;;2.47;1.73;;;;;;;30.13;25.60;99886.06;5069498;28;20030;-29
2022/09/14 11:35:44;;;;;;;3.42;2.05;;;;;;;29.78;27.56;99880.47;5069073;28;20041;-29
2022/09/14 11:38:14;;;;;;;3.40;2.28;;;;;;;29.95;26.15;99880.09;5069345;28;20033;-35
2022/09/14 11:40:45;;;;;;;3.70;1.80;;;;;;;30.43;25.64;99880.91;5067709;28;20119;-32
2022/09/14 11:43:45;;;;;;;4.85;2.00;;;;;;;30.74;24.37;99873.75;5051150;28;20512;-36
2022/09/14 11:46:16;;;;;;;4.47;1.90;;;;;;;30.71;26.98;99855.22;5050991;28;20085;-36
2022/09/14 11:48:59;;;;;;;3.60;1.77;;;;;;;30.49;27.28;99848.44;5014772;28;20113;-32